Hovedside
METAR-TAF:

METAR-TAF

Lufthavner :

Alta lufthavn

Alta, Norge

breddegrad: 69-59N, lengdegrad: 023-22E, høyde over havet: 0 m

Gjeldene værobservasjon

Denne rapporten ble laget for 1 time og 6 minutter siden, klokken 09:50 UTC
Vind 11 kt fra Sør-sørvest
Temperatur 12°C
Luftfuktighet 58%
Trykk 984 hPa
Sikt 10 km eller mer
Få skyer i en høyde av 3000 ft
Brutte skyer i en høyde av 7600 ft

METAR: ENAT 210950Z 21011KT 9999 FEW030 BKN076 12/04 Q0984 RMK WIND 700FT 20015KT

Tid: 12:56 (10:56 UTC)

Varsel

Denne rapporten ble laget for 2 timer og 56 minutter siden, klokken 08:00 UTC
Varsel gyldig fra 21. klokken 09 UTC til 21. klokken 18 UTC
Vind 10 kt fra Sørvest
Sikt 10 km eller mer
Få skyer i en høyde av 2000 ft
Brutte skyer i en høyde av 6000 ft
Midlertidig
fra 21. klokken 09 UTC til 21. klokken 18 UTC
Vind 8 kt fra Sør-sørøst

TAF: ENAT 210800Z 2109/2118 22010KT 9999 FEW020 BKN060 TEMPO 2109/2118 16008KT

Værobservasjoner og værvarsel for over 4000 flyplasser (METAR- og TAF-rapporter).

Tilgjengelige stasjoner er representert av de røde og gule prikkene på kartet.

Hold musepekeren over prikken for å se navnet på stasjonen.

Klikk så for å se værobservasjoner og -varsler.

For å forandre kartet kan du klikke på den grønne knappen med svart kryss for å zoome inn, på den grønne knappen med strek for å zoome ut, eller på de grønne pilene for å se tilstøtende kart.


METAR-TAF: